createdAt,value
2022-12-03T00:00:12.209Z,25.75
2022-12-03T00:02:40.442Z,21.42
2022-12-03T00:05:08.274Z,26.35
2022-12-03T00:07:35.764Z,27.27
2022-12-03T00:10:04.321Z,21.35
2022-12-03T00:12:31.788Z,21.92
2022-12-03T00:15:01.397Z,21.67
2022-12-03T00:17:28.731Z,18.67
2022-12-03T00:19:56.262Z,20.40
2022-12-03T00:22:23.622Z,17.33
2022-12-03T00:24:51.254Z,21.73
2022-12-03T00:27:18.913Z,16.02
2022-12-03T00:29:46.205Z,23.52
2022-12-03T00:32:14.227Z,22.80
2022-12-03T00:34:41.487Z,24.88
2022-12-03T00:37:08.960Z,23.98
2022-12-03T00:39:36.455Z,46.17
2022-12-03T00:42:04.011Z,22.20
2022-12-03T00:44:31.438Z,24.05
2022-12-03T00:46:59.072Z,20.65
2022-12-03T00:49:26.509Z,20.35
2022-12-03T00:51:53.818Z,23.90
2022-12-03T00:54:21.103Z,27.30
2022-12-03T00:56:48.512Z,22.15
2022-12-03T00:59:15.836Z,27.88
2022-12-03T01:01:43.299Z,25.08
2022-12-03T01:04:17.816Z,26.98
2022-12-03T01:06:52.669Z,60.55
2022-12-03T01:09:20.141Z,26.02
2022-12-03T01:11:47.524Z,28.48
2022-12-03T01:14:18.958Z,23.40
2022-12-03T01:16:47.863Z,25.50
2022-12-03T01:19:16.369Z,30.05
2022-12-03T01:21:46.240Z,26.95
2022-12-03T01:24:13.676Z,27.83
2022-12-03T01:26:41.017Z,34.13
2022-12-03T01:29:08.314Z,28.58
2022-12-03T01:31:54.223Z,56.15
2022-12-03T01:34:22.097Z,86.57
2022-12-03T01:36:49.430Z,36.03
2022-12-03T01:39:16.724Z,26.55
2022-12-03T01:41:44.592Z,30.95
2022-12-03T01:44:26.888Z,27.02
2022-12-03T01:46:56.746Z,29.73
2022-12-03T01:49:28.633Z,29.13
2022-12-03T01:51:57.049Z,36.33
2022-12-03T01:54:36.868Z,28.02
2022-12-03T01:57:04.948Z,29.70
2022-12-03T01:59:37.967Z,27.75
2022-12-03T02:02:19.829Z,31.80
2022-12-03T02:04:47.901Z,35.50
2022-12-03T02:07:20.044Z,29.70
2022-12-03T02:09:48.915Z,28.67
2022-12-03T02:12:21.548Z,25.73
2022-12-03T02:14:49.564Z,32.70
2022-12-03T02:17:18.107Z,28.90
2022-12-03T02:19:46.236Z,31.08
2022-12-03T02:22:30.218Z,32.70
2022-12-03T02:25:11.614Z,23.20
2022-12-03T02:27:39.170Z,30.20
2022-12-03T02:30:08.322Z,30.48
2022-12-03T02:32:35.822Z,37.70
2022-12-03T02:35:03.381Z,30.05
2022-12-03T02:37:34.437Z,28.75
2022-12-03T02:40:09.683Z,33.00
2022-12-03T02:42:37.235Z,32.42
2022-12-03T02:45:30.975Z,26.38
2022-12-03T02:48:19.746Z,32.65
2022-12-03T02:50:59.405Z,30.95
2022-12-03T02:53:49.028Z,24.95
2022-12-03T02:56:22.985Z,26.25
2022-12-03T02:58:53.625Z,28.20
2022-12-03T03:01:21.137Z,29.38
2022-12-03T03:03:50.513Z,27.17
2022-12-03T03:06:19.153Z,25.02
2022-12-03T03:08:46.645Z,27.77
2022-12-03T03:11:14.982Z,21.67
2022-12-03T03:13:42.523Z,23.38
2022-12-03T03:16:10.287Z,17.80
2022-12-03T03:18:38.126Z,25.90
2022-12-03T03:21:06.481Z,31.27
2022-12-03T03:23:34.211Z,26.33
2022-12-03T03:26:07.668Z,21.45
2022-12-03T03:28:38.356Z,24.10
2022-12-03T03:31:08.007Z,20.08
2022-12-03T03:33:37.027Z,22.83
2022-12-03T03:36:05.232Z,27.02
2022-12-03T03:38:33.018Z,18.83
2022-12-03T03:41:02.240Z,18.45
2022-12-03T03:43:30.884Z,21.52
2022-12-03T03:45:58.259Z,23.10
2022-12-03T03:48:25.739Z,21.67
2022-12-03T03:50:54.079Z,21.85
2022-12-03T03:53:22.960Z,23.98
2022-12-03T03:55:50.839Z,25.95
2022-12-03T03:58:18.500Z,19.20
2022-12-03T04:00:46.676Z,23.80
2022-12-03T04:03:14.356Z,28.48
2022-12-03T04:05:41.798Z,23.70
2022-12-03T04:08:09.135Z,23.67
2022-12-03T04:10:54.925Z,25.77
2022-12-03T04:13:22.506Z,26.60
2022-12-03T04:15:49.940Z,21.35
2022-12-03T04:18:35.864Z,26.00
2022-12-03T04:21:22.096Z,26.02
2022-12-03T04:23:49.486Z,27.20
2022-12-03T04:26:35.234Z,32.63
2022-12-03T04:29:02.568Z,27.73
2022-12-03T04:31:49.600Z,31.38
2022-12-03T04:34:38.153Z,32.15
2022-12-03T04:37:10.680Z,27.83
2022-12-03T04:39:38.320Z,33.05
2022-12-03T04:42:06.319Z,31.13
2022-12-03T04:44:35.801Z,27.42
2022-12-03T04:47:09.276Z,31.67
2022-12-03T04:49:39.975Z,43.22
2022-12-03T04:52:07.774Z,38.60
2022-12-03T04:54:35.700Z,39.10
2022-12-03T04:57:04.793Z,37.03
2022-12-03T04:59:32.683Z,36.70
2022-12-03T05:02:00.432Z,41.47
2022-12-03T05:04:28.050Z,38.38
2022-12-03T05:06:55.400Z,44.08
2022-12-03T05:09:23.005Z,39.55
2022-12-03T05:11:51.501Z,40.30
2022-12-03T05:14:18.780Z,42.03
2022-12-03T05:16:46.129Z,36.92
2022-12-03T05:19:13.531Z,40.30
2022-12-03T05:21:40.927Z,39.85
2022-12-03T05:24:08.329Z,84.45
2022-12-03T05:26:35.974Z,42.88
2022-12-03T05:29:03.673Z,40.00
2022-12-03T05:31:31.242Z,32.95
2022-12-03T05:33:58.613Z,40.85
2022-12-03T05:36:25.883Z,36.67
2022-12-03T05:38:53.162Z,32.28
2022-12-03T05:41:39.165Z,42.38
2022-12-03T05:44:06.491Z,32.13
2022-12-03T05:46:34.000Z,30.65
2022-12-03T05:49:01.600Z,30.67
2022-12-03T05:51:29.144Z,28.90
2022-12-03T05:53:56.429Z,34.53
2022-12-03T05:56:23.854Z,24.13
2022-12-03T05:58:51.171Z,27.52
2022-12-03T06:01:18.498Z,32.38
2022-12-03T06:03:47.353Z,25.02
2022-12-03T06:06:14.784Z,26.83
2022-12-03T06:08:42.229Z,34.85
2022-12-03T06:11:09.487Z,36.40
2022-12-03T06:13:36.871Z,32.53
2022-12-03T06:16:04.432Z,24.73
2022-12-03T06:18:31.845Z,29.83
2022-12-03T06:20:59.316Z,27.48
2022-12-03T06:23:26.602Z,22.30
2022-12-03T06:25:53.971Z,31.33
2022-12-03T06:28:22.279Z,33.97
2022-12-03T06:30:49.586Z,35.58
2022-12-03T06:33:17.105Z,26.80
2022-12-03T06:35:44.649Z,23.77
2022-12-03T06:38:12.082Z,23.50
2022-12-03T06:40:39.554Z,26.35
2022-12-03T06:43:06.864Z,23.45
2022-12-03T06:45:34.254Z,22.63
2022-12-03T06:48:01.668Z,24.05
2022-12-03T06:50:29.132Z,30.02
2022-12-03T06:52:56.544Z,37.15
2022-12-03T06:55:23.857Z,36.47
2022-12-03T06:57:51.162Z,33.72
2022-12-03T07:00:18.912Z,22.75
2022-12-03T07:02:46.197Z,29.30
2022-12-03T07:05:13.785Z,24.05
2022-12-03T07:07:41.663Z,26.52
2022-12-03T07:10:09.548Z,28.38
2022-12-03T07:12:41.496Z,27.08
2022-12-03T07:15:13.150Z,25.73
2022-12-03T07:17:43.163Z,27.00
2022-12-03T07:20:10.882Z,24.38
2022-12-03T07:22:38.409Z,22.63
2022-12-03T07:25:06.722Z,23.85
2022-12-03T07:27:34.204Z,25.00
2022-12-03T07:30:01.880Z,29.75
2022-12-03T07:32:30.703Z,21.00
2022-12-03T07:34:58.240Z,31.05
2022-12-03T07:37:25.518Z,22.70
2022-12-03T07:39:52.805Z,20.25
2022-12-03T07:42:20.398Z,32.90
2022-12-03T07:44:47.699Z,21.17
2022-12-03T07:47:15.186Z,23.65
2022-12-03T07:49:42.638Z,17.45
2022-12-03T07:52:10.058Z,26.10
2022-12-03T07:54:37.405Z,21.75
2022-12-03T07:57:04.765Z,19.23
2022-12-03T07:59:32.087Z,21.85
2022-12-03T08:01:59.476Z,29.95
2022-12-03T08:04:26.789Z,21.65
2022-12-03T08:06:54.316Z,20.00
2022-12-03T08:09:21.869Z,15.65
2022-12-03T08:11:49.669Z,21.50
2022-12-03T08:14:19.164Z,23.70
2022-12-03T08:16:47.440Z,21.58
2022-12-03T08:19:16.852Z,28.38
2022-12-03T08:21:44.626Z,21.75
2022-12-03T08:24:16.199Z,18.88
2022-12-03T08:26:44.603Z,100.53
2022-12-03T08:29:15.170Z,14.57
2022-12-03T08:31:47.648Z,23.30
2022-12-03T08:34:22.924Z,21.35
2022-12-03T08:36:56.088Z,23.67
2022-12-03T08:39:35.907Z,16.58
2022-12-03T08:42:30.649Z,20.38
2022-12-03T08:45:20.258Z,18.60
2022-12-03T08:47:47.738Z,20.92
2022-12-03T08:50:30.384Z,20.85
2022-12-03T08:53:25.775Z,14.60
2022-12-03T08:55:55.531Z,29.60
2022-12-03T08:58:32.024Z,26.90
2022-12-03T09:01:11.654Z,15.93
2022-12-03T09:03:47.388Z,15.40
2022-12-03T09:06:14.972Z,18.27
2022-12-03T09:08:42.267Z,13.77
2022-12-03T09:11:09.771Z,19.15
2022-12-03T09:13:37.082Z,18.52
2022-12-03T09:16:04.600Z,18.95
2022-12-03T09:18:32.809Z,17.35
2022-12-03T09:21:00.086Z,20.25
2022-12-03T09:23:27.385Z,13.43
2022-12-03T09:25:55.684Z,15.60
2022-12-03T09:28:22.960Z,15.73
2022-12-03T09:30:50.217Z,14.43
2022-12-03T09:33:17.581Z,25.65
2022-12-03T09:35:46.669Z,22.08
2022-12-03T09:38:13.939Z,14.50
2022-12-03T09:40:42.326Z,17.58
2022-12-03T09:43:11.893Z,18.95
2022-12-03T09:45:39.497Z,22.23
2022-12-03T09:48:07.033Z,16.85
2022-12-03T09:50:37.050Z,25.75
2022-12-03T09:53:04.619Z,20.67
2022-12-03T09:55:32.672Z,19.30
2022-12-03T09:58:01.030Z,21.98
2022-12-03T10:00:30.390Z,17.42
2022-12-03T10:03:01.513Z,21.63
2022-12-03T10:05:29.223Z,19.30
2022-12-03T10:08:07.718Z,21.48
2022-12-03T10:10:36.432Z,19.10
2022-12-03T10:13:30.336Z,21.83
2022-12-03T10:15:59.764Z,21.08
2022-12-03T10:18:30.943Z,17.23
2022-12-03T10:20:58.909Z,20.90
2022-12-03T10:23:28.896Z,23.17
2022-12-03T10:26:03.721Z,19.80
2022-12-03T10:28:35.222Z,19.92
2022-12-03T10:31:08.058Z,18.73
2022-12-03T10:33:45.305Z,23.88
2022-12-03T10:36:19.131Z,15.07
2022-12-03T10:38:47.350Z,16.88
2022-12-03T10:41:23.981Z,16.52
2022-12-03T10:43:51.446Z,25.90
2022-12-03T10:46:20.905Z,22.65
2022-12-03T10:49:15.666Z,13.75
2022-12-03T10:51:44.361Z,26.38
2022-12-03T10:54:19.441Z,15.25
2022-12-03T10:56:48.037Z,18.05
2022-12-03T10:59:21.354Z,9.02
2022-12-03T11:01:49.823Z,20.20
2022-12-03T11:04:22.335Z,12.35
2022-12-03T11:06:50.780Z,11.32
2022-12-03T11:09:22.599Z,16.70
2022-12-03T11:11:50.561Z,12.30
2022-12-03T11:14:50.973Z,17.30
2022-12-03T11:17:51.236Z,16.20
2022-12-03T11:20:24.790Z,18.95
2022-12-03T11:22:56.579Z,21.90
2022-12-03T11:25:26.962Z,15.68
2022-12-03T11:28:12.566Z,16.63
2022-12-03T11:30:49.075Z,18.40
2022-12-03T11:33:25.007Z,14.48
2022-12-03T11:36:01.173Z,23.90
2022-12-03T11:38:37.909Z,13.82
2022-12-03T11:41:25.889Z,21.38
2022-12-03T11:43:53.211Z,20.83
2022-12-03T11:46:29.784Z,19.50
2022-12-03T11:49:00.129Z,18.17
2022-12-03T11:51:29.779Z,15.88
2022-12-03T11:53:59.882Z,14.48
2022-12-03T11:56:30.010Z,22.38
2022-12-03T11:59:02.887Z,20.05
2022-12-03T12:01:39.053Z,25.48
2022-12-03T12:04:08.598Z,20.40
2022-12-03T12:06:44.016Z,21.00
2022-12-03T12:09:11.448Z,14.38
2022-12-03T12:11:43.958Z,23.52
2022-12-03T12:14:13.437Z,16.88
2022-12-03T12:16:41.839Z,27.45
2022-12-03T12:19:29.249Z,21.60
2022-12-03T12:22:12.608Z,20.35
2022-12-03T12:24:47.512Z,16.77
2022-12-03T12:27:35.360Z,21.55
2022-12-03T12:30:10.502Z,16.25
2022-12-03T12:32:50.287Z,20.92
2022-12-03T12:35:26.167Z,17.65
2022-12-03T12:38:00.222Z,21.73
2022-12-03T12:40:33.922Z,16.15
2022-12-03T12:43:25.756Z,24.20
2022-12-03T12:45:55.648Z,22.65
2022-12-03T12:48:26.522Z,20.13
2022-12-03T12:51:00.780Z,21.58
2022-12-03T12:53:34.163Z,28.88
2022-12-03T12:56:20.682Z,25.38
2022-12-03T12:58:48.119Z,24.63
2022-12-03T13:01:29.250Z,31.00
2022-12-03T13:03:57.605Z,28.58
2022-12-03T13:06:28.292Z,27.10
2022-12-03T13:08:56.837Z,23.35
2022-12-03T13:11:43.599Z,30.58
2022-12-03T13:14:22.510Z,23.77
2022-12-03T13:16:56.881Z,26.50
2022-12-03T13:19:30.209Z,29.70
2022-12-03T13:22:01.288Z,26.50
2022-12-03T13:24:33.639Z,24.48
2022-12-03T13:27:21.154Z,22.35
2022-12-03T13:29:53.515Z,25.75
2022-12-03T13:32:31.189Z,22.33
2022-12-03T13:35:13.318Z,26.30
2022-12-03T13:37:40.806Z,25.85
2022-12-03T13:40:23.966Z,26.42
2022-12-03T13:42:52.667Z,25.98
2022-12-03T13:45:19.881Z,23.33
2022-12-03T13:47:50.332Z,25.40
2022-12-03T13:50:35.552Z,33.40
2022-12-03T13:53:19.151Z,30.35
2022-12-03T13:55:48.935Z,26.30
2022-12-03T13:58:16.328Z,24.35
2022-12-03T14:00:44.015Z,31.80
2022-12-03T14:03:11.750Z,32.28
2022-12-03T14:05:39.123Z,26.15
2022-12-03T14:08:06.644Z,25.45
2022-12-03T14:10:34.367Z,22.77
2022-12-03T14:13:01.746Z,29.92
2022-12-03T14:15:29.066Z,24.73
2022-12-03T14:17:56.365Z,28.20
2022-12-03T14:20:23.636Z,33.17
2022-12-03T14:22:55.117Z,27.60
2022-12-03T14:25:26.475Z,24.23
2022-12-03T14:27:54.965Z,30.23
2022-12-03T14:30:22.353Z,28.08
2022-12-03T14:32:49.575Z,22.38
2022-12-03T14:35:16.877Z,26.35
2022-12-03T14:37:46.512Z,33.92
2022-12-03T14:40:19.583Z,25.42
2022-12-03T14:42:48.738Z,31.23
2022-12-03T14:45:16.079Z,27.08
2022-12-03T14:47:44.388Z,28.17
2022-12-03T14:50:14.399Z,37.05
2022-12-03T14:52:43.343Z,27.25
2022-12-03T14:55:10.772Z,27.13
2022-12-03T14:57:38.300Z,26.80
2022-12-03T15:00:07.587Z,28.67
2022-12-03T15:02:35.203Z,29.88
2022-12-03T15:05:02.656Z,23.77
2022-12-03T15:07:30.515Z,38.53
2022-12-03T15:09:58.622Z,32.55
2022-12-03T15:12:26.366Z,29.55
2022-12-03T15:14:53.877Z,29.35
2022-12-03T15:17:29.483Z,28.60
2022-12-03T15:19:59.037Z,34.13
2022-12-03T15:22:26.316Z,30.58
2022-12-03T15:24:53.644Z,31.33
2022-12-03T15:27:21.290Z,29.40
2022-12-03T15:29:48.756Z,26.33
2022-12-03T15:32:16.202Z,27.33
2022-12-03T15:34:43.772Z,31.38
2022-12-03T15:37:11.156Z,28.25
2022-12-03T15:39:41.365Z,36.08
2022-12-03T15:42:14.783Z,33.78
2022-12-03T15:44:42.059Z,34.55
2022-12-03T15:47:09.342Z,30.88
2022-12-03T15:49:36.680Z,25.05
2022-12-03T15:52:07.496Z,28.50
2022-12-03T15:54:34.804Z,28.42
2022-12-03T15:57:02.269Z,28.50
2022-12-03T15:59:29.587Z,23.73
2022-12-03T16:01:57.018Z,25.48
2022-12-03T16:04:24.407Z,31.30
2022-12-03T16:06:52.075Z,28.60
2022-12-03T16:09:25.267Z,29.40
2022-12-03T16:11:57.132Z,30.55
2022-12-03T16:14:24.476Z,31.77
2022-12-03T16:16:52.093Z,32.47
2022-12-03T16:19:19.929Z,31.88
2022-12-03T16:21:47.356Z,28.92
2022-12-03T16:24:14.697Z,29.00
2022-12-03T16:26:41.946Z,31.58
2022-12-03T16:29:09.553Z,26.48
2022-12-03T16:31:36.893Z,29.20
2022-12-03T16:34:04.477Z,27.45
2022-12-03T16:36:31.745Z,29.70
2022-12-03T16:38:59.101Z,34.75
2022-12-03T16:41:27.122Z,35.47
2022-12-03T16:43:54.513Z,29.85
2022-12-03T16:46:25.945Z,32.03
2022-12-03T16:48:58.089Z,29.20
2022-12-03T16:51:27.453Z,28.40
2022-12-03T16:53:55.154Z,34.63
2022-12-03T16:56:22.778Z,29.65
2022-12-03T16:58:50.079Z,30.38
2022-12-03T17:01:18.969Z,32.78
2022-12-03T17:03:46.426Z,27.38
2022-12-03T17:06:13.816Z,26.95
2022-12-03T17:08:47.396Z,31.48
2022-12-03T17:11:16.787Z,31.58
2022-12-03T17:13:44.123Z,30.05
2022-12-03T17:16:11.463Z,32.67
2022-12-03T17:18:38.863Z,36.33
2022-12-03T17:21:06.720Z,34.42
2022-12-03T17:23:33.967Z,31.85
2022-12-03T17:26:01.400Z,31.23
2022-12-03T17:28:28.792Z,40.22
2022-12-03T17:30:56.179Z,33.60
2022-12-03T17:33:23.717Z,29.35
2022-12-03T17:35:51.014Z,32.83
2022-12-03T17:38:18.446Z,30.25
2022-12-03T17:40:45.777Z,32.60
2022-12-03T17:43:13.055Z,33.00
2022-12-03T17:45:40.734Z,35.28
2022-12-03T17:48:08.557Z,33.25
2022-12-03T17:50:36.246Z,29.13
2022-12-03T17:53:05.502Z,40.70
2022-12-03T17:55:39.724Z,37.60
2022-12-03T17:58:11.523Z,36.85
2022-12-03T18:00:39.093Z,34.60
2022-12-03T18:03:06.414Z,33.17
2022-12-03T18:05:33.780Z,33.15
2022-12-03T18:08:01.273Z,35.40
2022-12-03T18:10:29.256Z,28.63
2022-12-03T18:13:01.446Z,33.72
2022-12-03T18:15:29.493Z,35.83
2022-12-03T18:17:57.230Z,29.38
2022-12-03T18:20:24.667Z,34.88
2022-12-03T18:22:52.014Z,37.33
2022-12-03T18:25:19.578Z,35.78
2022-12-03T18:27:47.551Z,33.95
2022-12-03T18:30:17.620Z,31.33
2022-12-03T18:32:44.933Z,27.33
2022-12-03T18:35:12.770Z,34.53
2022-12-03T18:37:40.283Z,29.35
2022-12-03T18:40:13.439Z,42.50
2022-12-03T18:42:41.239Z,35.92
2022-12-03T18:45:12.969Z,41.38
2022-12-03T18:47:40.754Z,33.42
2022-12-03T18:50:09.618Z,31.95
2022-12-03T18:52:37.607Z,33.50
2022-12-03T18:55:05.735Z,31.45
2022-12-03T18:57:33.099Z,37.60
2022-12-03T19:00:00.402Z,34.22
2022-12-03T19:05:15.259Z,39.28
2022-12-03T19:07:43.659Z,35.15
2022-12-03T19:10:11.835Z,29.77
2022-12-03T19:12:39.530Z,35.75
2022-12-03T19:15:08.804Z,32.72
2022-12-03T19:17:36.159Z,31.02
2022-12-03T19:20:05.434Z,32.80
2022-12-03T19:22:32.758Z,33.70
2022-12-03T19:25:00.091Z,36.50
2022-12-03T19:27:30.418Z,33.38
2022-12-03T19:29:58.083Z,35.13
2022-12-03T19:32:25.482Z,35.65
2022-12-03T19:34:52.859Z,38.97
2022-12-03T19:37:20.189Z,39.72
2022-12-03T19:39:47.546Z,45.78
2022-12-03T19:42:14.961Z,34.95
2022-12-03T19:44:42.467Z,43.97
2022-12-03T19:47:09.815Z,34.92
2022-12-03T19:49:37.098Z,43.53
2022-12-03T19:52:04.562Z,38.55
2022-12-03T19:54:31.962Z,34.15
2022-12-03T19:56:59.215Z,43.47
2022-12-03T19:59:26.497Z,37.17
2022-12-03T20:01:53.909Z,35.55
2022-12-03T20:04:21.377Z,36.97
2022-12-03T20:06:48.747Z,36.20
2022-12-03T20:09:20.705Z,38.50
2022-12-03T20:11:51.228Z,42.60
2022-12-03T20:14:19.762Z,36.33
2022-12-03T20:16:48.540Z,45.60
2022-12-03T20:19:17.947Z,43.72
2022-12-03T20:21:45.501Z,37.25
2022-12-03T20:24:15.544Z,32.10
2022-12-03T20:26:43.407Z,37.78
2022-12-03T20:29:10.855Z,38.00
2022-12-03T20:31:38.247Z,41.58
2022-12-03T20:34:05.891Z,29.65
2022-12-03T20:36:33.592Z,33.05
2022-12-03T20:39:05.618Z,39.95
2022-12-03T20:41:35.508Z,32.95
2022-12-03T20:44:03.344Z,40.47
2022-12-03T20:46:31.892Z,33.80
2022-12-03T20:49:00.296Z,34.28
2022-12-03T20:51:30.191Z,35.72
2022-12-03T20:53:59.207Z,30.42
2022-12-03T20:56:33.308Z,33.42
2022-12-03T20:59:06.436Z,36.88
2022-12-03T21:01:36.025Z,34.13
2022-12-03T21:04:04.892Z,37.15
2022-12-03T21:06:34.225Z,40.55
2022-12-03T21:09:02.766Z,45.10
2022-12-03T21:11:31.903Z,43.58
2022-12-03T21:14:00.240Z,62.88
2022-12-03T21:16:59.417Z,40.75
2022-12-03T21:19:20.434Z,47.10
2022-12-03T21:21:47.931Z,44.55
2022-12-03T21:24:15.302Z,42.50
2022-12-03T21:26:42.880Z,38.47
2022-12-03T21:29:10.250Z,43.70
2022-12-03T21:31:39.900Z,36.40
2022-12-03T21:34:08.895Z,40.38
2022-12-03T21:36:36.334Z,43.08
2022-12-03T21:39:04.689Z,38.78
2022-12-03T21:41:32.264Z,34.40
2022-12-03T21:43:59.574Z,38.58
2022-12-03T21:47:12.205Z,43.75
2022-12-03T21:49:14.556Z,40.65
2022-12-03T21:51:41.902Z,40.65
2022-12-03T21:54:09.376Z,48.33
2022-12-03T21:56:36.699Z,45.30
2022-12-03T21:59:06.012Z,46.55
2022-12-03T22:01:33.442Z,45.08
2022-12-03T22:04:00.892Z,43.08
2022-12-03T22:06:29.262Z,46.35
2022-12-03T22:08:56.594Z,42.17
2022-12-03T22:11:24.196Z,50.15
2022-12-03T22:13:51.659Z,44.55
2022-12-03T22:16:21.325Z,43.47
2022-12-03T22:18:49.554Z,43.25
2022-12-03T22:21:19.707Z,41.55
2022-12-03T22:23:47.101Z,41.58
2022-12-03T22:26:16.991Z,39.65
2022-12-03T22:28:45.979Z,41.80
2022-12-03T22:31:14.501Z,43.80
2022-12-03T22:33:42.515Z,35.97
2022-12-03T22:36:20.604Z,49.65
2022-12-03T22:38:50.324Z,45.42
2022-12-03T22:41:18.698Z,41.90
2022-12-03T22:43:46.957Z,42.38
2022-12-03T22:46:15.295Z,41.38
2022-12-03T22:48:43.878Z,41.80
2022-12-03T22:51:23.223Z,51.88
2022-12-03T22:53:58.298Z,54.05
2022-12-03T22:56:27.269Z,44.83
2022-12-03T22:58:54.964Z,43.85
2022-12-03T23:01:25.109Z,39.85
2022-12-03T23:03:52.907Z,49.88
2022-12-03T23:06:20.907Z,46.53
2022-12-03T23:08:48.269Z,43.08
2022-12-03T23:11:16.401Z,44.13
2022-12-03T23:13:44.019Z,38.90
2022-12-03T23:16:15.940Z,43.53
2022-12-03T23:18:43.602Z,47.63
2022-12-03T23:21:17.276Z,56.05
2022-12-03T23:23:44.742Z,39.22
2022-12-03T23:26:13.754Z,39.22
2022-12-03T23:28:42.386Z,42.80
2022-12-03T23:31:22.034Z,45.63
2022-12-03T23:33:50.500Z,49.67
2022-12-03T23:36:18.070Z,49.67
2022-12-03T23:38:45.678Z,40.60
2022-12-03T23:41:15.936Z,41.95
2022-12-03T23:43:43.548Z,36.28
2022-12-03T23:46:15.113Z,40.50
2022-12-03T23:48:42.790Z,35.78
2022-12-03T23:51:13.010Z,36.85
2022-12-03T23:53:41.164Z,42.17
2022-12-03T23:56:13.772Z,42.53
2022-12-03T23:58:41.654Z,42.08
